METAR AND TAF INFORMATION
METAR FOR KPAE
KPAE 211553Z 34003KT 10SM CLR 19/10 A2998 RMK AO2 SLP150 T01940100
KPAE 211453Z 33004KT 10SM CLR 17/09 A2999 RMK AO2 SLP151 T01720089 53006
KPAE 211353Z 36004KT 10SM CLR 17/09 A2998 RMK AO2 SLP148 T01670094
KPAE 211124Z 2112/2212 35006KT P6SM SKC
FM221100 19006KT P6SM SKC

 AIRPORT MAP

 RUNWAY INFORMATION
Runway 11 Runway length 4514 ft Runway width 75 ft
Runway elevation 572 ft Runway displaced threshold 799 ft Runway heading 134
Runway 29 Runway length 4514 ft Runway width 75 ft
Runway elevation 600 ft Runway displaced threshold 0 ft Runway heading 314
Runway 16L Runway length 3000 ft Runway width 75 ft
Runway elevation 597 ft Runway displaced threshold 0 ft Runway heading 180
Runway 34R Runway length 3000 ft Runway width 75 ft
Runway elevation 596 ft Runway displaced threshold 0 ft Runway heading 360
Runway 16R Runway length 9010 ft Runway width 150 ft
Runway elevation 558 ft Runway displaced threshold 0 ft Runway heading 179
Runway 34L Runway length 9010 ft Runway width 150 ft
Runway elevation 579 ft Runway displaced threshold 0 ft Runway heading 359

 AIRPORT FREQUENCIES
Type ATIS Name ATIS Frequency 128.65 MHZ
Type CLD Name CLNC DEL Frequency 126.75 MHZ
Type CNTR Name SEATTLE CN Frequency 128.5 MHZ
Type CTAF Name CTAF Frequency 132.95 MHZ
Type GND Name GND Frequency 121.8 MHZ
Type OPS Name AR OPS Frequency 34.1 MHZ
Type RDO Name SEATTLE RD Frequency 132.96 MHZ
Type TWR Name ACFT ARR E Frequency 120.2 MHZ
Type UNIC Name UNICOM Frequency 122.95 MHZ
Type TWR Name ACFT ARR W Frequency 132.95 MHZ

 AIRPORT NEAR NAVIGATION AIDS
Type NDB Name Ritts Frequency 396 KHZ
Type VOR-DME Name Paine Frequency 110600 KHZ

-